Terminal Aerodrome Forecast
Issued by NWS

Home | Current Version | Previous Version | Text Only | Print | Product List | Glossary Off
Versions: 1 2 3 4 5 6 7 8 9 10 11 12 13 14 15

317
FTUS41 KCLE 031730
TAFFDY
TAF
KFDY 031730Z 0318/0418 32006KT P6SM OVC060
     FM032100 26005KT P6SM BKN100
     FM040200 21010KT P6SM BKN250
     FM041400 21010KT P6SM -SHRA OVC035=

USA.gov is the U.S. government's official web portal to all federal, state and local government web resources and services.